Time;durP1;ratioP1;P1;durP2;ratioP2;P2;SDS_P1;SDS_P2;PMS_P1;PMS_P2;Temp;Humidity;BMP_temperature;BMP_pressure;BME280_temperature;BME280_humidity;BME280_pressure;Samples;Min_cycle;Max_cycle;Signal;HPM_P1;HPM_P2
2022/06/16 00:02:31;;;;;;;6.28;3.83;;;;;;;17.76;59.39;99983.69;10369362;28;20049;-82
2022/06/16 00:07:33;;;;;;;4.40;3.90;;;;;;;17.63;59.86;99973.78;10384504;28;20173;-82
2022/06/16 00:12:35;;;;;;;4.75;4.20;;;;;;;17.63;59.91;99979.09;10388044;28;20045;-82
2022/06/16 00:17:38;;;;;;;5.50;4.07;;;;;;;17.67;59.86;99978.91;10370735;28;20054;-82
2022/06/16 00:22:39;;;;;;;6.90;5.22;;;;;;;17.61;60.42;99967.69;10373336;28;20046;-82
2022/06/16 00:27:43;;;;;;;4.60;3.78;;;;;;;17.44;60.35;99970.53;10388479;28;20045;-82
2022/06/16 00:32:45;;;;;;;5.85;4.45;;;;;;;17.14;61.52;99974.13;10372357;28;20046;-82
2022/06/16 00:37:46;;;;;;;5.50;4.30;;;;;;;17.02;62.15;99972.19;10411544;28;20065;-81
2022/06/16 00:42:48;;;;;;;6.03;4.35;;;;;;;17.30;61.57;99970.53;10394599;28;20034;-82
2022/06/16 00:47:52;;;;;;;4.80;4.13;;;;;;;17.18;62.11;99968.59;10404700;28;20422;-83
2022/06/16 00:52:54;;;;;;;9.65;4.35;;;;;;;17.14;62.45;99966.16;10387020;28;20046;-83
2022/06/16 00:57:56;;;;;;;4.78;3.70;;;;;;;16.98;62.80;99959.19;10369420;28;20049;-83
2022/06/16 01:02:57;;;;;;;4.05;3.65;;;;;;;16.80;63.59;99955.81;10386503;28;20476;-83
2022/06/16 01:07:59;;;;;;;5.85;3.90;;;;;;;16.68;63.86;99961.78;10391846;28;20050;-83
2022/06/16 01:13:42;;;;;;;4.00;3.45;;;;;;;16.50;64.15;99956.59;10413898;28;20068;-83
2022/06/16 01:19:26;;;;;;;4.97;3.60;;;;;;;16.54;64.39;99963.44;10397833;28;20038;-83
2022/06/16 01:24:40;;;;;;;3.83;3.47;;;;;;;16.26;65.59;99958.88;10375853;28;20049;-83
2022/06/16 01:29:51;;;;;;;4.82;4.28;;;;;;;16.32;65.34;99962.97;10375041;28;20038;-83
2022/06/16 01:35:05;;;;;;;4.20;3.50;;;;;;;16.47;64.93;99963.88;10402186;28;20049;-83
2022/06/16 01:40:16;;;;;;;4.53;4.10;;;;;;;16.28;65.89;99951.66;10379329;28;20077;-84
2022/06/16 01:45:27;;;;;;;4.72;3.80;;;;;;;16.13;65.81;99958.69;10415986;28;20061;-83
2022/06/16 01:50:38;;;;;;;3.97;2.97;;;;;;;16.22;65.05;99956.47;10395206;28;20050;-84
2022/06/16 01:55:47;;;;;;;3.63;3.13;;;;;;;16.25;65.22;99951.88;10362125;28;20081;-84
2022/06/16 02:00:54;;;;;;;4.88;3.38;;;;;;;16.28;65.28;99950.81;10362560;28;20137;-84
2022/06/16 02:06:08;;;;;;;4.53;3.28;;;;;;;15.98;66.72;99951.63;10364318;28;20143;-81
2022/06/16 02:11:31;;;;;;;3.78;3.40;;;;;;;15.95;66.57;99935.88;10381334;28;20034;-84
2022/06/16 02:16:45;;;;;;;4.60;4.15;;;;;;;15.88;67.27;99939.78;10380756;28;20049;-84
2022/06/16 02:21:50;;;;;;;6.10;4.97;;;;;;;15.69;67.79;99933.78;10364391;28;20506;-84
2022/06/16 02:26:58;;;;;;;5.20;4.38;;;;;;;15.73;67.56;99932.69;10348892;28;20042;-84
2022/06/16 02:32:48;;;;;;;6.15;4.47;;;;;;;16.10;66.76;99934.16;10389584;28;20173;-84
2022/06/16 02:37:52;;;;;;;4.70;4.05;;;;;;;15.87;67.21;99938.94;10251003;29;20367;-83
2022/06/16 02:43:09;;;;;;;5.43;4.65;;;;;;;15.74;67.89;99939.69;10265082;29;20648;-84
2022/06/16 02:48:17;;;;;;;;;;;;;;;15.60;68.33;99940.41;10249327;29;20063;-83
2022/06/16 02:53:41;;;;;;;4.80;4.22;;;;;;;15.63;68.32;99935.81;10263263;29;19998;-83
2022/06/16 02:58:44;;;;;;;7.93;4.32;;;;;;;15.71;68.17;99934.53;10262939;29;20091;-83
2022/06/16 03:04:04;;;;;;;4.60;4.18;;;;;;;15.72;68.10;99921.22;10262909;29;20058;-83
2022/06/16 03:09:07;;;;;;;5.05;3.97;;;;;;;15.81;67.87;99920.72;10246466;29;20047;-83
2022/06/16 03:14:10;;;;;;;3.88;3.58;;;;;;;15.81;67.58;99915.44;10340278;28;20046;-83
2022/06/16 03:19:17;;;;;;;4.13;3.72;;;;;;;15.82;67.31;99921.59;10371322;28;20046;-84
2022/06/16 03:24:19;;;;;;;4.68;4.03;;;;;;;15.87;67.22;99941.59;10404549;28;20057;-83
2022/06/16 03:29:21;;;;;;;3.72;3.40;;;;;;;15.96;66.91;99940.22;10372396;28;20435;-83
2022/06/16 03:34:24;;;;;;;4.30;3.75;;;;;;;16.46;65.48;99925.88;10387033;28;20042;-83
2022/06/16 03:39:26;;;;;;;4.65;4.15;;;;;;;16.35;65.58;99923.88;10369885;28;20190;-83
2022/06/16 03:44:30;;;;;;;3.78;3.38;;;;;;;16.13;66.63;99929.53;10370741;28;20049;-83
2022/06/16 03:49:31;;;;;;;6.90;4.72;;;;;;;16.18;67.12;99933.72;10356914;28;20048;-84
2022/06/16 03:54:34;;;;;;;3.45;3.15;;;;;;;16.11;67.00;99927.88;10405335;28;20057;-83
2022/06/16 03:59:39;;;;;;;6.95;4.07;;;;;;;16.30;67.20;99928.59;10374575;28;20042;-84
2022/06/16 04:04:54;;;;;;;4.68;4.28;;;;;;;16.53;65.38;99943.16;10374381;28;20096;-84
2022/06/16 04:09:57;;;;;;;4.88;4.28;;;;;;;16.49;66.08;99948.75;10427301;28;20071;-81
2022/06/16 04:14:59;;;;;;;5.35;4.88;;;;;;;16.59;65.71;99934.84;10388060;28;20104;-83
2022/06/16 04:20:14;;;;;;;4.70;4.30;;;;;;;16.45;66.56;99942.75;10393618;28;20595;-82
2022/06/16 04:25:32;;;;;;;4.95;4.47;;;;;;;16.57;66.35;99931.44;10395513;28;20516;-82
2022/06/16 04:30:38;;;;;;;5.30;4.78;;;;;;;16.72;67.24;99931.47;10396678;28;20113;-83
2022/06/16 04:35:41;;;;;;;4.30;3.92;;;;;;;16.80;64.90;99942.53;10427936;28;20076;-82
2022/06/16 04:40:46;;;;;;;5.10;4.22;;;;;;;17.14;63.75;99931.63;10418016;28;20042;-82
2022/06/16 04:45:50;;;;;;;3.95;3.55;;;;;;;17.86;60.35;99942.28;10401825;28;20048;-82
2022/06/16 04:50:55;;;;;;;5.30;4.32;;;;;;;17.74;60.92;99932.41;10416802;28;20068;-82
2022/06/16 04:56:01;;;;;;;5.03;4.05;;;;;;;17.67;61.76;99925.75;10399972;28;20054;-82
2022/06/16 05:01:24;;;;;;;8.35;4.07;;;;;;;17.82;61.44;99923.00;10386052;28;20046;-84
2022/06/16 05:06:49;;;;;;;5.38;4.32;;;;;;;18.01;60.58;99930.66;10362285;28;20061;-82
2022/06/16 05:12:10;;;;;;;4.55;4.15;;;;;;;18.03;61.03;99950.03;10383893;28;20050;-83
2022/06/16 05:17:24;;;;;;;5.57;4.38;;;;;;;18.00;60.72;99939.59;10399958;28;20137;-84
2022/06/16 05:22:26;;;;;;;5.22;4.18;;;;;;;18.13;60.52;99948.50;10395456;28;20046;-84
2022/06/16 05:27:47;;;;;;;4.93;4.50;;;;;;;18.03;60.38;99955.34;10420374;28;20113;-84
2022/06/16 05:33:14;;;;;;;6.78;5.10;;;;;;;17.90;61.80;99979.22;10416568;28;20046;-83
2022/06/16 05:38:51;;;;;;;5.43;4.30;;;;;;;18.67;59.86;99979.56;10385693;28;20046;-84
2022/06/16 05:44:31;;;;;;;3.80;3.40;;;;;;;18.90;58.18;99996.72;10391385;28;20153;-80
2022/06/16 05:49:52;;;;;;;3.60;3.30;;;;;;;19.00;57.17;99989.00;10377480;28;20415;-81
2022/06/16 05:54:54;;;;;;;5.85;3.33;;;;;;;19.51;56.35;99994.38;10408261;28;20046;-82
2022/06/16 05:59:59;;;;;;;3.70;2.80;;;;;;;20.04;55.56;99987.94;10394087;28;20144;-81
2022/06/16 06:05:01;;;;;;;2.78;2.47;;;;;;;20.54;53.58;99990.59;10401010;28;20042;-81
2022/06/16 06:20:50;;;;;;;6.68;2.42;;;;;;;20.33;53.56;100014.34;10376066;28;20056;-82
2022/06/16 06:25:54;;;;;;;4.57;2.40;;;;;;;20.19;55.13;100014.47;10397190;28;20053;-83
2022/06/16 06:30:59;;;;;;;3.97;1.80;;;;;;;20.14;55.81;100005.00;10395740;28;20056;-83
2022/06/16 06:36:04;;;;;;;4.20;2.15;;;;;;;20.17;57.17;100026.13;10391165;28;20030;-84
2022/06/16 06:41:06;;;;;;;4.03;2.63;;;;;;;19.81;59.13;100042.06;10385644;28;20092;-84
2022/06/16 06:46:11;;;;;;;3.03;1.95;;;;;;;19.65;60.16;100044.94;10384868;28;20081;-84
2022/06/16 06:51:13;;;;;;;7.25;3.65;;;;;;;19.36;61.35;100029.13;10386539;28;20046;-85
2022/06/16 06:56:18;;;;;;;3.78;2.95;;;;;;;19.40;60.83;100035.94;10395183;22;20096;-68
2022/06/16 07:01:20;;;;;;;5.60;2.58;;;;;;;19.74;60.40;100044.31;10459663;28;20043;-69
2022/06/16 07:06:22;;;;;;;7.22;3.40;;;;;;;19.69;63.77;100046.44;10496463;28;20127;-69
2022/06/16 07:11:24;;;;;;;6.25;3.33;;;;;;;20.08;62.92;100057.94;10496368;28;20508;-69
2022/06/16 07:16:26;;;;;;;4.50;3.67;;;;;;;20.21;62.27;100065.94;10500041;28;20052;-69
2022/06/16 07:21:27;;;;;;;4.10;3.63;;;;;;;20.32;63.01;100058.88;10503475;28;20064;-69
2022/06/16 07:26:32;;;;;;;6.22;3.70;;;;;;;20.39;61.02;100052.13;10485949;28;20115;-69
2022/06/16 07:31:33;;;;;;;4.85;3.10;;;;;;;20.30;59.93;100063.47;10503533;28;20051;-69
2022/06/16 07:36:37;;;;;;;11.70;3.70;;;;;;;20.22;61.99;100068.50;10503335;28;20047;-69
2022/06/16 07:41:39;;;;;;;5.55;4.05;;;;;;;20.34;63.32;100056.09;10503269;28;20059;-69
2022/06/16 07:46:42;;;;;;;8.55;3.50;;;;;;;20.57;61.45;100049.13;10485584;28;20049;-68
2022/06/16 07:51:44;;;;;;;5.43;2.90;;;;;;;20.74;60.15;100067.44;10502671;28;20059;-68
2022/06/16 07:56:46;;;;;;;4.35;2.60;;;;;;;21.02;59.05;100070.72;10485099;28;20049;-69
2022/06/16 08:01:48;;;;;;;4.30;3.00;;;;;;;21.33;57.41;100080.00;10503154;28;20049;-70
2022/06/16 08:06:50;;;;;;;4.88;3.15;;;;;;;20.91;57.99;100083.06;10502790;28;20051;-69
2022/06/16 08:12:03;;;;;;;7.88;3.25;;;;;;;20.82;58.59;100075.75;10502600;28;20043;-68
2022/06/16 08:17:11;;;;;;;5.13;3.47;;;;;;;21.27;57.82;100085.78;10483541;28;20163;-68
2022/06/16 08:22:13;;;;;;;11.77;3.75;;;;;;;22.17;55.62;100081.53;10501857;28;20410;-67
2022/06/16 08:27:18;;;;;;;6.78;2.78;;;;;;;22.67;54.67;100085.50;10500902;28;20053;-69
2022/06/16 08:32:21;;;;;;;3.88;2.85;;;;;;;22.79;52.40;100083.63;10500945;28;20071;-69
2022/06/16 08:37:24;;;;;;;5.70;2.30;;;;;;;22.81;50.96;100095.09;10500907;28;20044;-69
2022/06/16 08:42:55;;;;;;;3.13;2.25;;;;;;;23.00;48.36;100089.09;10501043;28;20044;-69
2022/06/16 08:48:16;;;;;;;3.17;2.00;;;;;;;23.91;45.95;100090.41;10500507;28;20068;-70
2022/06/16 08:53:37;;;;;;;4.65;2.67;;;;;;;23.19;47.39;100096.47;10500852;28;20036;-70
2022/06/16 08:58:46;;;;;;;7.30;2.30;;;;;;;23.70;46.78;100101.13;10502004;28;20050;-70
2022/06/16 09:04:26;;;;;;;7.65;2.10;;;;;;;24.52;44.81;100100.28;10500340;28;20033;-70
2022/06/16 09:10:15;;;;;;;3.88;2.42;;;;;;;25.42;43.43;100119.88;10315661;28;20510;-70
2022/06/16 09:15:42;;;;;;;4.35;2.22;;;;;;;24.63;43.77;100121.69;10310733;28;20054;-70
2022/06/16 09:20:49;;;;;;;3.80;2.17;;;;;;;24.33;43.57;100130.59;10290456;28;20089;-69
2022/06/16 09:26:26;;;;;;;5.15;2.10;;;;;;;23.98;44.12;100129.13;10292661;28;20078;-69
2022/06/16 09:31:48;;;;;;;3.78;2.17;;;;;;;24.06;46.05;100134.69;10310399;28;20138;-69
2022/06/16 09:37:01;;;;;;;3.55;2.20;;;;;;;23.97;46.35;100129.28;10320100;28;20051;-69
2022/06/16 09:42:32;;;;;;;3.63;2.38;;;;;;;24.80;45.47;100139.84;10290947;28;20170;-69
2022/06/16 09:47:45;;;;;;;3.60;2.28;;;;;;;25.05;43.68;100148.38;10468504;28;20051;-68
2022/06/16 09:52:55;;;;;;;2.97;2.17;;;;;;;23.92;44.80;100149.31;10498012;28;20040;-69
2022/06/16 09:58:12;;;;;;;5.20;2.10;;;;;;;24.41;44.58;100142.41;10499446;28;20045;-69
2022/06/16 10:03:29;;;;;;;4.43;2.60;;;;;;;24.10;45.19;100154.09;10480210;28;20402;-68
2022/06/16 10:08:45;;;;;;;3.95;2.30;;;;;;;24.32;44.87;100153.06;10457248;28;20044;-69
2022/06/16 10:14:06;;;;;;;4.35;1.85;;;;;;;24.06;45.21;100166.06;10457191;28;20037;-69
2022/06/16 10:19:08;;;;;;;3.67;2.25;;;;;;;23.64;46.52;100155.28;10456654;28;20051;-69
2022/06/16 10:24:10;;;;;;;6.40;2.50;;;;;;;23.72;47.29;100179.66;10456815;28;20414;-69
2022/06/16 10:29:26;;;;;;;4.53;2.50;;;;;;;23.88;46.81;100193.50;10451025;23;20044;-72
2022/06/16 10:34:35;;;;;;;4.17;1.87;;;;;;;23.51;45.42;100181.47;10408654;28;20034;-72
2022/06/16 10:39:49;;;;;;;3.90;2.58;;;;;;;23.29;45.34;100187.75;10397948;28;20360;-71
2022/06/16 10:44:56;;;;;;;4.25;2.10;;;;;;;23.76;46.73;100174.91;10396907;28;20045;-71
2022/06/16 10:49:59;;;;;;;4.82;2.85;;;;;;;24.43;42.88;100161.06;10416235;28;20049;-71
2022/06/16 10:55:15;;;;;;;3.95;1.92;;;;;;;24.95;41.68;100144.84;10422211;28;20046;-71
2022/06/16 11:00:23;;;;;;;4.40;2.22;;;;;;;25.04;40.10;100134.09;10423162;28;20077;-73
2022/06/16 11:05:27;;;;;;;3.95;1.88;;;;;;;25.12;40.16;100128.06;10427037;28;20053;-72
2022/06/16 11:10:31;;;;;;;4.72;1.95;;;;;;;25.37;41.38;100124.81;10431680;28;20077;-72
2022/06/16 11:15:38;;;;;;;6.60;2.03;;;;;;;25.14;40.10;100134.97;10422416;28;20061;-71
2022/06/16 11:20:48;;;;;;;3.25;1.70;;;;;;;24.63;41.54;100153.94;10422050;28;20092;-71
2022/06/16 11:26:06;;;;;;;4.00;1.60;;;;;;;24.77;42.20;100155.41;10403404;28;20053;-72
2022/06/16 11:31:08;;;;;;;2.88;1.80;;;;;;;26.02;39.16;100153.81;10420714;28;20045;-71
2022/06/16 11:36:41;;;;;;;5.88;1.75;;;;;;;25.78;39.93;100165.06;10422158;28;20088;-71
2022/06/16 11:41:47;;;;;;;4.22;1.90;;;;;;;24.82;40.93;100166.59;10403614;28;20103;-72
2022/06/16 11:46:56;;;;;;;3.95;2.33;;;;;;;24.60;42.15;100171.19;10421128;28;20491;-72
2022/06/16 11:52:19;;;;;;;2.63;2.30;;;;;;;24.81;40.71;100173.81;10420612;28;20041;-73
2022/06/16 11:57:33;;;;;;;5.28;2.10;;;;;;;25.85;39.75;100168.88;10422185;28;20041;-72
2022/06/16 12:03:10;;;;;;;5.10;2.20;;;;;;;26.82;38.64;100168.59;10420485;28;20052;-72
2022/06/16 12:08:34;;;;;;;3.10;2.08;;;;;;;26.09;38.34;100169.28;10420659;28;20049;-72
2022/06/16 12:13:45;;;;;;;11.45;2.40;;;;;;;26.05;39.14;100165.16;10418525;28;20045;-72
2022/06/16 12:18:57;;;;;;;8.38;1.92;;;;;;;25.65;41.43;100160.78;10418911;28;20103;-72
2022/06/16 12:24:17;;;;;;;2.97;2.35;;;;;;;25.67;42.26;100166.88;10420384;28;20116;-73
2022/06/16 12:29:36;;;;;;;6.00;2.83;;;;;;;25.64;41.25;100166.31;10419685;28;20042;-72
2022/06/16 12:34:57;;;;;;;7.70;2.40;;;;;;;25.39;44.02;100167.72;10418717;28;20041;-72
2022/06/16 12:40:11;;;;;;;3.45;2.20;;;;;;;26.02;40.04;100169.97;10417468;28;20051;-72
2022/06/16 12:45:28;;;;;;;3.42;1.77;;;;;;;26.30;39.01;100154.75;10418198;28;20045;-71
2022/06/16 12:50:40;;;;;;;2.35;2.05;;;;;;;26.44;38.62;100156.16;10418174;28;20041;-72
2022/06/16 12:55:49;;;;;;;3.28;2.42;;;;;;;26.70;39.43;100162.56;10416323;28;20068;-72
2022/06/16 13:00:54;;;;;;;3.90;1.80;;;;;;;26.88;35.75;100154.53;10415891;28;21915;-72
2022/06/16 13:05:57;;;;;;;4.30;1.50;;;;;;;26.95;36.15;100161.00;10417683;28;20092;-71
2022/06/16 13:11:03;;;;;;;3.47;1.55;;;;;;;27.21;36.55;100161.16;10417048;28;20041;-71
2022/06/16 13:16:10;;;;;;;2.78;1.58;;;;;;;27.12;36.34;100152.13;10416641;28;20054;-71
2022/06/16 13:21:23;;;;;;;2.38;1.35;;;;;;;27.71;35.76;100148.94;10376408;28;20367;-72
2022/06/16 13:26:32;;;;;;;3.17;1.63;;;;;;;27.73;34.47;100153.25;10358585;28;20037;-73
2022/06/16 13:31:43;;;;;;;3.78;1.40;;;;;;;27.15;35.80;100149.13;10358552;28;20054;-73
2022/06/16 13:36:45;;;;;;;2.95;1.70;;;;;;;27.28;35.67;100153.31;10387499;28;20045;-72
2022/06/16 13:42:22;;;;;;;2.85;1.58;;;;;;;27.18;35.40;100147.94;10414979;28;20076;-72
2022/06/16 13:47:23;;;;;;;2.72;1.80;;;;;;;27.40;35.05;100135.84;10414612;28;20049;-72
2022/06/16 13:52:33;;;;;;;4.10;1.45;;;;;;;27.71;34.15;100128.19;10398598;28;20132;-71
2022/06/16 13:57:35;;;;;;;2.83;1.80;;;;;;;27.63;35.34;100122.75;10415938;28;20380;-72
2022/06/16 14:02:58;;;;;;;2.50;1.45;;;;;;;27.85;33.90;100122.28;10415276;28;20038;-72
2022/06/16 14:08:13;;;;;;;3.60;1.60;;;;;;;28.04;33.69;100126.63;10415414;28;20044;-72
2022/06/16 14:13:15;;;;;;;2.28;1.48;;;;;;;27.78;34.39;100120.34;10415722;28;20045;-71
2022/06/16 14:18:25;;;;;;;3.88;1.48;;;;;;;27.99;35.15;100111.91;10413773;28;20055;-72
2022/06/16 14:23:38;;;;;;;3.08;1.98;;;;;;;27.75;36.57;100116.09;10414786;28;20422;-72
2022/06/16 14:28:43;;;;;;;3.03;1.58;;;;;;;27.81;36.43;100120.91;10421475;28;20049;-73
2022/06/16 14:34:08;;;;;;;4.13;1.60;;;;;;;27.53;37.18;100106.63;10422824;28;20069;-71
2022/06/16 14:39:29;;;;;;;;;;;;;;;27.96;35.66;100110.34;10423046;28;20046;-71
2022/06/16 14:44:51;;;;;;;4.10;1.67;;;;;;;28.00;35.41;100102.78;10420895;28;19936;-73
2022/06/16 14:50:07;;;;;;;1.92;1.40;;;;;;;27.86;35.15;100107.75;10423268;28;20372;-71
2022/06/16 14:55:31;;;;;;;2.35;1.50;;;;;;;28.33;34.83;100109.19;10421878;28;20042;-71
2022/06/16 15:00:41;;;;;;;3.25;1.52;;;;;;;28.28;33.96;100108.84;10421903;28;20056;-71
2022/06/16 15:05:44;;;;;;;3.33;1.58;;;;;;;27.42;34.96;100107.72;10419933;28;20046;-71
2022/06/16 15:10:46;;;;;;;2.90;1.50;;;;;;;27.74;33.38;100110.88;10419223;28;20041;-71
2022/06/16 15:15:52;;;;;;;2.72;1.40;;;;;;;28.09;33.44;100110.78;10420962;28;20048;-72
2022/06/16 15:20:58;;;;;;;5.07;1.48;;;;;;;27.85;34.34;100116.03;10420820;28;20043;-71
2022/06/16 15:26:00;;;;;;;;;;;;;;;28.60;31.93;100114.44;10403169;28;20088;-72
2022/06/16 15:31:21;;;;;;;3.95;1.20;;;;;;;27.85;32.47;100127.69;10420520;28;20286;-71
2022/06/16 15:36:23;;;;;;;3.70;1.58;;;;;;;26.44;33.42;100127.34;10419028;28;20144;-71
2022/06/16 15:41:33;;;;;;;3.22;1.38;;;;;;;26.42;32.95;100129.31;10419514;28;20385;-71
2022/06/16 15:46:45;;;;;;;2.40;1.50;;;;;;;26.88;33.41;100127.56;10419954;28;20041;-72
2022/06/16 15:51:47;;;;;;;2.40;1.35;;;;;;;27.02;33.73;100136.97;10420180;28;20553;-73
2022/06/16 15:56:56;;;;;;;2.55;1.25;;;;;;;26.76;33.33;100137.69;10419592;28;20458;-73
2022/06/16 16:01:59;;;;;;;4.18;1.48;;;;;;;26.46;32.30;100143.38;10419479;28;20041;-73
2022/06/16 16:07:01;;;;;;;3.80;1.23;;;;;;;26.53;31.87;100152.56;10418975;28;20069;-72
2022/06/16 16:12:16;;;;;;;2.55;1.05;;;;;;;26.71;31.62;100166.97;10418716;28;20049;-72
2022/06/16 16:17:18;;;;;;;2.95;1.60;;;;;;;26.78;31.43;100173.44;10418732;28;20061;-72
2022/06/16 16:22:20;;;;;;;3.17;1.50;;;;;;;26.22;30.96;100168.09;10418982;28;20499;-72
2022/06/16 16:27:28;;;;;;;6.55;1.80;;;;;;;26.28;31.83;100175.59;10415258;22;20045;-67
2022/06/16 16:32:34;;;;;;;2.28;1.40;;;;;;;26.03;32.16;100177.06;10461153;28;20462;-67
2022/06/16 16:37:37;;;;;;;2.28;1.40;;;;;;;26.01;32.15;100170.97;10461115;28;20037;-67
2022/06/16 16:43:01;;;;;;;2.53;1.70;;;;;;;26.27;30.25;100166.66;10459842;28;20516;-68
2022/06/16 16:48:45;;;;;;;4.32;1.55;;;;;;;26.25;30.58;100168.66;10458628;28;20073;-68
2022/06/16 16:53:58;;;;;;;2.85;1.27;;;;;;;25.64;30.81;100163.63;10459160;28;20041;-68
2022/06/16 16:59:06;;;;;;;3.38;1.35;;;;;;;25.52;31.22;100171.00;10458822;28;20051;-69
2022/06/16 17:04:18;;;;;;;3.33;1.48;;;;;;;25.29;31.83;100174.94;10458636;28;20041;-67
2022/06/16 17:09:20;;;;;;;4.38;1.85;;;;;;;25.38;31.59;100174.09;10459089;28;20047;-68
2022/06/16 17:14:32;;;;;;;2.35;1.15;;;;;;;25.43;32.54;100179.91;10458081;28;20041;-68
2022/06/16 17:19:38;;;;;;;4.28;1.38;;;;;;;25.25;32.94;100181.59;10458703;28;20051;-70
2022/06/16 17:24:40;;;;;;;2.17;1.15;;;;;;;25.03;33.78;100186.19;10441246;28;20123;-67
2022/06/16 17:29:42;;;;;;;3.78;0.98;;;;;;;24.74;34.56;100199.53;10458260;28;20045;-69
2022/06/16 17:34:49;;;;;;;3.33;1.20;;;;;;;24.49;35.37;100195.47;10458820;28;20060;-69
2022/06/16 17:39:52;;;;;;;3.97;1.45;;;;;;;24.54;35.98;100198.59;10439330;28;20135;-68
2022/06/16 17:44:54;;;;;;;5.28;1.40;;;;;;;24.10;36.46;100197.06;10457166;28;20513;-69
2022/06/16 17:49:56;;;;;;;2.80;1.00;;;;;;;24.03;36.80;100209.28;10457154;28;20051;-69
2022/06/16 18:00:24;;;;;;;3.22;1.08;;;;;;;23.82;37.08;100238.81;10456637;28;20186;-69
2022/06/16 18:05:25;;;;;;;2.63;1.38;;;;;;;23.44;37.18;100245.50;10438544;28;20094;-69
2022/06/16 18:10:31;;;;;;;2.08;1.20;;;;;;;23.47;37.23;100245.25;10457291;28;20116;-68
2022/06/16 18:15:33;;;;;;;4.63;1.10;;;;;;;23.30;37.25;100254.66;10456363;28;20047;-69
2022/06/16 18:20:35;;;;;;;3.22;1.20;;;;;;;23.29;37.28;100265.53;10456834;28;20049;-70
2022/06/16 18:25:38;;;;;;;2.45;1.10;;;;;;;23.22;36.88;100275.03;10456196;28;20045;-69
2022/06/16 18:30:41;;;;;;;3.65;1.10;;;;;;;22.97;37.19;100282.34;10455943;28;20045;-69
2022/06/16 18:35:43;;;;;;;2.65;1.30;;;;;;;22.80;37.10;100281.00;10457389;28;20490;-69
2022/06/16 18:40:48;;;;;;;4.07;1.45;;;;;;;22.82;37.58;100288.91;10457133;28;20044;-69
2022/06/16 18:45:52;;;;;;;7.93;1.77;;;;;;;22.64;37.65;100292.06;10456061;28;20068;-70
2022/06/16 18:50:54;;;;;;;2.53;1.27;;;;;;;22.43;37.82;100307.09;10456529;28;20048;-69
2022/06/16 18:55:56;;;;;;;1.52;1.00;;;;;;;22.39;37.93;100302.97;10456215;28;20033;-70
2022/06/16 19:00:57;;;;;;;3.20;1.30;;;;;;;22.25;38.09;100313.88;10456418;28;20060;-71
2022/06/16 19:06:01;;;;;;;4.93;1.50;;;;;;;22.10;38.16;100326.56;10455935;28;20473;-70
2022/06/16 19:11:02;;;;;;;4.32;1.40;;;;;;;22.12;37.75;100336.22;10457816;28;20053;-70
2022/06/16 19:16:07;;;;;;;1.70;1.27;;;;;;;21.96;38.23;100342.78;10464107;28;20124;-69
2022/06/16 19:21:15;;;;;;;3.63;1.50;;;;;;;21.70;38.88;100353.63;10463013;28;20513;-70
2022/06/16 19:26:18;;;;;;;1.75;1.20;;;;;;;21.51;39.37;100362.09;10463349;28;20053;-69
2022/06/16 19:31:23;;;;;;;2.08;1.52;;;;;;;21.37;39.69;100381.81;10462609;28;20116;-70
2022/06/16 19:36:27;;;;;;;2.17;1.40;;;;;;;21.24;39.83;100399.66;10463030;28;20063;-70
2022/06/16 19:41:34;;;;;;;2.47;1.60;;;;;;;21.34;40.03;100405.25;10462515;28;20067;-69
2022/06/16 19:52:01;;;;;;;6.13;1.50;;;;;;;20.91;41.22;100421.56;10444489;28;20048;-70
2022/06/16 19:57:05;;;;;;;2.55;1.20;;;;;;;20.91;40.91;100432.28;10463749;28;20041;-70
2022/06/16 20:02:08;;;;;;;3.03;1.33;;;;;;;20.93;41.18;100438.34;10462057;28;20059;-71
2022/06/16 20:07:12;;;;;;;1.50;1.08;;;;;;;20.65;41.83;100442.91;10462621;28;20045;-70
2022/06/16 20:12:14;;;;;;;1.85;1.20;;;;;;;20.54;42.10;100447.22;10461305;28;20044;-70
2022/06/16 20:17:17;;;;;;;2.80;1.33;;;;;;;20.42;42.74;100459.56;10461768;28;20045;-70
2022/06/16 20:22:18;;;;;;;3.70;1.30;;;;;;;20.28;43.12;100465.81;10460409;28;20128;-70
2022/06/16 20:27:20;;;;;;;4.88;1.35;;;;;;;20.12;43.75;100455.28;10460585;28;20052;-70
2022/06/16 20:32:22;;;;;;;2.28;1.30;;;;;;;20.07;44.29;100456.53;10460318;28;20502;-71
2022/06/16 20:37:24;;;;;;;1.98;1.23;;;;;;;19.88;44.32;100464.88;10441909;28;20053;-70
2022/06/16 20:42:26;;;;;;;1.65;0.90;;;;;;;19.80;44.67;100464.50;10459872;28;20116;-70
2022/06/16 20:47:29;;;;;;;4.72;1.10;;;;;;;19.77;44.61;100462.84;10459650;28;20049;-71
2022/06/16 20:52:31;;;;;;;2.60;1.00;;;;;;;19.88;44.42;100470.19;10441753;28;20128;-70
2022/06/16 21:02:53;;;;;;;3.03;1.02;;;;;;;19.51;45.15;100483.13;10460335;28;20445;-70
2022/06/16 21:07:55;;;;;;;2.47;1.10;;;;;;;19.44;45.64;100491.63;10459606;28;20045;-70
2022/06/16 21:12:57;;;;;;;1.88;1.00;;;;;;;19.22;45.73;100508.06;10458620;28;20494;-70
2022/06/16 21:18:00;;;;;;;1.80;1.00;;;;;;;19.16;46.43;100517.25;10458720;28;20116;-70
2022/06/16 21:23:03;;;;;;;1.55;0.95;;;;;;;18.95;46.71;100518.50;10457682;28;20040;-69
2022/06/16 21:28:06;;;;;;;7.80;1.20;;;;;;;19.01;46.14;100521.69;10439580;28;20053;-70
2022/06/16 21:33:09;;;;;;;3.25;1.00;;;;;;;19.01;46.09;100540.34;10457404;28;20037;-70
2022/06/16 21:38:13;;;;;;;2.22;0.90;;;;;;;18.97;46.25;100535.28;10457297;28;20048;-70
2022/06/16 21:43:15;;;;;;;3.22;1.08;;;;;;;19.04;45.97;100544.66;10457296;28;20045;-70
2022/06/16 21:48:20;;;;;;;1.25;0.95;;;;;;;18.92;46.19;100546.22;10439036;28;20566;-69
2022/06/16 21:53:25;;;;;;;2.92;1.08;;;;;;;19.02;46.10;100550.03;10457075;28;20037;-69
2022/06/16 21:58:26;;;;;;;3.15;1.17;;;;;;;19.03;45.83;100551.75;10456845;28;20514;-70
2022/06/16 22:03:31;;;;;;;1.70;0.88;;;;;;;18.84;47.04;100551.13;10457102;28;20041;-69
2022/06/16 22:08:33;;;;;;;1.67;0.93;;;;;;;18.62;46.95;100560.31;10456492;28;20049;-70
2022/06/16 22:13:35;;;;;;;1.80;0.82;;;;;;;18.61;47.03;100563.91;10456207;28;20490;-70
2022/06/16 22:18:37;;;;;;;3.25;0.82;;;;;;;18.58;47.63;100563.22;10456875;28;20083;-69
2022/06/16 22:23:41;;;;;;;1.33;0.85;;;;;;;18.44;47.97;100572.00;10438448;28;20129;-69
2022/06/16 22:28:52;;;;;;;1.90;1.10;;;;;;;18.37;47.70;100578.59;10469754;22;20054;-73
2022/06/16 22:33:56;;;;;;;2.80;1.15;;;;;;;18.53;47.88;100587.44;10458319;28;20128;-73
2022/06/16 22:38:58;;;;;;;2.22;1.20;;;;;;;18.38;48.02;100601.63;10458644;28;20041;-73
2022/06/16 22:44:03;;;;;;;1.65;1.00;;;;;;;18.17;48.64;100608.09;10458474;28;20048;-73
2022/06/16 22:49:06;;;;;;;2.63;0.80;;;;;;;18.22;47.70;100627.34;10465512;28;20063;-73
2022/06/16 22:59:29;;;;;;;2.05;0.90;;;;;;;18.15;47.80;100616.19;10465229;28;20041;-73
2022/06/16 23:04:31;;;;;;;2.40;0.90;;;;;;;18.05;47.54;100628.25;10464436;28;20087;-73
2022/06/16 23:09:36;;;;;;;2.60;1.10;;;;;;;18.03;47.94;100630.13;10465609;28;20045;-73
2022/06/16 23:14:38;;;;;;;2.17;1.00;;;;;;;17.87;48.81;100641.56;10465894;28;20371;-73
2022/06/16 23:19:40;;;;;;;2.85;1.48;;;;;;;17.83;48.97;100660.41;10462921;28;20516;-73
2022/06/16 23:24:42;;;;;;;2.50;1.00;;;;;;;17.70;48.88;100667.28;10463966;28;20043;-73
2022/06/16 23:29:45;;;;;;;1.15;0.80;;;;;;;17.73;48.58;100660.00;10464709;28;20047;-73
2022/06/16 23:34:47;;;;;;;2.20;0.88;;;;;;;17.68;48.75;100663.84;10463356;28;20045;-73
2022/06/16 23:39:52;;;;;;;2.20;1.00;;;;;;;17.51;49.12;100667.38;10464447;28;20045;-73
2022/06/16 23:44:57;;;;;;;2.15;0.80;;;;;;;17.45;49.51;100660.56;10464192;28;20040;-73
2022/06/16 23:49:59;;;;;;;2.50;1.05;;;;;;;17.47;49.16;100640.06;10463295;28;20578;-73
2022/06/16 23:55:10;;;;;;;2.55;0.82;;;;;;;17.52;49.42;100632.72;10446628;28;20049;-73
